Time;durP1;ratioP1;P1;durP2;ratioP2;P2;SDS_P1;SDS_P2;PMS_P1;PMS_P2;Temp;Humidity;BMP_temperature;BMP_pressure;BME280_temperature;BME280_humidity;BME280_pressure;Samples;Min_cycle;Max_cycle;Signal;HPM_P1;HPM_P2
2023/06/26 00:00:18;;;;;;;4.05;3.65;;;;;;;19.73;76.83;101232.63;5015237;28;20259;-52
2023/06/26 00:02:45;;;;;;;4.45;3.90;;;;;;;19.67;76.56;101230.28;5016142;28;20244;-53
2023/06/26 00:05:10;;;;;;;4.13;3.83;;;;;;;19.67;76.72;101233.88;5021871;28;20179;-53
2023/06/26 00:07:36;;;;;;;4.15;3.75;;;;;;;19.64;77.23;101228.66;5011231;28;20632;-52
2023/06/26 00:10:02;;;;;;;4.18;3.70;;;;;;;19.72;76.71;101226.31;5018093;28;20176;-52
2023/06/26 00:12:29;;;;;;;4.05;3.75;;;;;;;19.73;76.59;101225.34;5016395;28;20240;-52
2023/06/26 00:14:54;;;;;;;4.10;3.80;;;;;;;19.64;76.81;101220.53;5006842;28;21012;-53
2023/06/26 00:17:20;;;;;;;4.28;3.63;;;;;;;19.66;77.10;101215.84;5002908;28;20198;-54
2023/06/26 00:19:46;;;;;;;6.28;4.00;;;;;;;19.58;77.50;101210.06;4997010;28;20606;-54
2023/06/26 00:22:11;;;;;;;3.70;3.40;;;;;;;19.57;77.45;101211.06;5006808;28;20230;-54
2023/06/26 00:24:37;;;;;;;5.88;4.20;;;;;;;19.65;77.47;101214.09;5010320;28;20180;-53
2023/06/26 00:27:02;;;;;;;3.90;3.60;;;;;;;19.58;77.79;101211.91;5010128;28;20180;-55
2023/06/26 00:29:28;;;;;;;6.10;4.35;;;;;;;19.59;77.92;101203.66;5007111;28;20196;-53
2023/06/26 00:31:53;;;;;;;4.45;3.90;;;;;;;19.65;77.91;101203.22;5004297;28;20180;-53
2023/06/26 00:34:19;;;;;;;5.10;4.15;;;;;;;19.61;77.80;101201.69;5018323;28;20697;-54
2023/06/26 00:36:46;;;;;;;4.00;3.63;;;;;;;19.53;78.45;101204.09;4998141;28;20616;-55
2023/06/26 00:39:11;;;;;;;4.03;3.63;;;;;;;19.48;78.71;101198.09;5006810;28;20179;-54
2023/06/26 00:41:37;;;;;;;4.88;4.22;;;;;;;19.46;79.48;101202.75;4999505;28;20187;-53
2023/06/26 00:44:05;;;;;;;4.10;3.80;;;;;;;19.48;79.90;101196.25;5016033;28;20684;-52
2023/06/26 00:46:31;;;;;;;6.00;4.25;;;;;;;19.50;79.89;101202.47;5019436;28;20188;-53
2023/06/26 00:48:59;;;;;;;5.45;4.35;;;;;;;19.46;80.27;101197.31;5016094;28;20271;-52
2023/06/26 00:51:29;;;;;;;5.13;4.03;;;;;;;19.46;80.48;101192.78;5008626;28;20189;-52
2023/06/26 00:53:56;;;;;;;4.38;3.95;;;;;;;19.40;80.34;101195.91;5010486;28;20205;-54
2023/06/26 00:56:22;;;;;;;4.28;3.95;;;;;;;19.34;80.96;101189.06;5007188;28;20560;-51
2023/06/26 00:58:47;;;;;;;4.22;3.92;;;;;;;19.38;81.48;101194.28;5011382;28;20284;-52
2023/06/26 01:01:17;;;;;;;4.35;3.90;;;;;;;19.31;82.15;101183.84;5005242;28;20654;-54
2023/06/26 01:03:51;;;;;;;5.32;4.28;;;;;;;19.34;82.07;101183.63;5008296;28;20208;-53
2023/06/26 01:06:18;;;;;;;5.45;4.10;;;;;;;19.26;82.48;101180.59;5014614;28;20186;-54
2023/06/26 01:08:45;;;;;;;5.78;4.30;;;;;;;19.30;82.81;101184.81;5006216;28;20232;-54
2023/06/26 01:11:12;;;;;;;4.80;4.30;;;;;;;19.27;83.50;101179.59;4999926;28;20184;-51
2023/06/26 01:13:39;;;;;;;5.18;4.47;;;;;;;19.23;83.58;101180.78;5005905;28;20208;-52
2023/06/26 01:16:05;;;;;;;4.97;4.57;;;;;;;19.19;84.09;101176.53;5011215;28;20647;-54
2023/06/26 01:18:32;;;;;;;4.38;3.97;;;;;;;19.24;84.50;101165.34;5020908;28;20681;-53
2023/06/26 01:21:01;;;;;;;4.68;4.18;;;;;;;19.21;84.78;101171.88;5014042;28;20268;-54
2023/06/26 01:23:47;;;;;;;4.95;4.45;;;;;;;19.20;85.04;101169.25;5012144;28;20251;-51
2023/06/26 01:26:20;;;;;;;6.18;4.72;;;;;;;19.16;85.75;101160.47;5001278;28;20187;-51
2023/06/26 01:28:46;;;;;;;5.68;4.80;;;;;;;19.15;86.32;101158.69;4997694;28;20181;-53
2023/06/26 01:31:13;;;;;;;5.60;4.72;;;;;;;19.20;86.25;101163.81;5004946;28;20651;-54
2023/06/26 01:33:39;;;;;;;5.20;4.70;;;;;;;19.21;86.82;101169.16;4997104;28;20205;-54
2023/06/26 01:36:06;;;;;;;6.15;4.72;;;;;;;19.18;86.92;101153.06;5006155;28;20342;-53
2023/06/26 01:38:34;;;;;;;5.10;4.70;;;;;;;19.17;87.35;101159.47;5008934;28;20254;-53
2023/06/26 01:41:00;;;;;;;5.32;4.82;;;;;;;19.23;87.71;101158.19;5009183;28;20267;-53
2023/06/26 01:43:36;;;;;;;4.88;4.47;;;;;;;19.10;88.33;101158.16;5015119;28;20211;-52
2023/06/26 01:46:06;;;;;;;5.70;5.25;;;;;;;19.10;88.16;101148.16;5017506;28;20590;-52
2023/06/26 01:48:40;;;;;;;5.95;5.05;;;;;;;19.02;88.70;101152.38;5011087;28;20195;-52
2023/06/26 01:51:08;;;;;;;5.95;5.15;;;;;;;19.02;89.23;101145.13;5009218;28;20327;-52
2023/06/26 01:53:37;;;;;;;6.72;5.03;;;;;;;18.99;89.49;101145.31;5002429;28;20387;-51
2023/06/26 01:56:12;;;;;;;5.60;5.10;;;;;;;18.93;89.69;101153.88;5012359;28;20270;-54
2023/06/26 01:58:44;;;;;;;8.40;4.93;;;;;;;18.91;90.06;101154.00;5006987;28;20195;-52
2023/06/26 02:01:11;;;;;;;5.95;5.10;;;;;;;18.90;90.70;101143.25;4998158;28;20178;-52
2023/06/26 02:03:37;;;;;;;5.93;5.43;;;;;;;18.89;90.95;101134.22;5006602;28;20196;-52
2023/06/26 02:06:03;;;;;;;5.90;5.40;;;;;;;18.91;91.33;101134.09;5005776;28;20184;-53
2023/06/26 02:08:28;;;;;;;5.47;5.07;;;;;;;18.82;91.72;101124.75;5009423;28;20200;-51
2023/06/26 02:10:56;;;;;;;5.57;5.18;;;;;;;18.85;91.86;101129.97;5003438;28;20227;-53
2023/06/26 02:13:21;;;;;;;6.53;5.93;;;;;;;18.77;92.65;101121.44;5002687;28;20290;-53
2023/06/26 02:15:47;;;;;;;6.60;5.93;;;;;;;18.78;92.74;101122.34;5016496;28;20203;-51
2023/06/26 02:18:13;;;;;;;6.70;5.45;;;;;;;18.77;93.63;101131.44;5008118;28;20203;-51
2023/06/26 02:20:39;;;;;;;5.78;5.32;;;;;;;18.75;93.94;101117.97;5004708;28;20272;-52
2023/06/26 02:23:05;;;;;;;6.30;5.70;;;;;;;18.80;94.06;101115.81;5007099;28;20208;-52
2023/06/26 02:25:31;;;;;;;6.63;5.45;;;;;;;18.71;94.40;101120.00;5015542;28;20567;-53
2023/06/26 02:27:56;;;;;;;6.32;5.72;;;;;;;18.66;95.29;101115.88;5009762;28;20295;-52
2023/06/26 02:30:22;;;;;;;6.28;5.60;;;;;;;18.65;95.65;101120.44;5004509;28;20559;-53
2023/06/26 02:32:47;;;;;;;7.97;5.97;;;;;;;18.69;95.79;101116.56;5015022;28;20630;-52
2023/06/26 02:35:13;;;;;;;8.13;6.03;;;;;;;18.68;96.64;101103.94;5015915;28;20207;-51
2023/06/26 02:37:41;;;;;;;6.53;6.03;;;;;;;18.68;96.91;101103.06;5015157;28;20185;-51
2023/06/26 02:40:08;;;;;;;7.82;6.22;;;;;;;18.70;97.24;101112.84;5007981;28;20187;-52
2023/06/26 02:42:35;;;;;;;6.72;5.97;;;;;;;18.63;97.48;101113.34;4997485;28;20196;-53
2023/06/26 02:45:01;;;;;;;6.90;6.40;;;;;;;18.67;97.67;101106.75;5009250;28;20278;-52
2023/06/26 02:47:28;;;;;;;7.35;6.65;;;;;;;18.73;98.28;101103.63;5001558;28;20647;-52
2023/06/26 02:49:54;;;;;;;6.07;5.63;;;;;;;18.68;98.32;101106.66;5003380;28;20180;-51
2023/06/26 02:52:20;;;;;;;6.80;6.30;;;;;;;18.73;99.05;101103.63;5015880;28;20216;-53
2023/06/26 02:54:45;;;;;;;6.43;5.82;;;;;;;18.73;98.93;101096.34;5015891;28;20205;-53
2023/06/26 02:57:14;;;;;;;6.47;5.93;;;;;;;18.75;99.29;101093.53;5009871;28;20247;-51
2023/06/26 02:59:40;;;;;;;8.27;6.50;;;;;;;18.65;99.34;101093.31;5000273;28;20236;-51
2023/06/26 03:02:06;;;;;;;6.93;6.38;;;;;;;18.64;100.00;101096.97;5013736;28;20197;-47
2023/06/26 03:04:38;;;;;;;6.47;5.88;;;;;;;18.63;100.00;101091.66;5013089;28;20173;-48
2023/06/26 03:07:09;;;;;;;7.65;6.85;;;;;;;18.61;100.00;101096.34;5006533;28;20588;-47
2023/06/26 03:09:36;;;;;;;6.85;6.20;;;;;;;18.59;100.00;101074.72;5000236;28;20207;-44
2023/06/26 03:12:02;;;;;;;6.90;6.30;;;;;;;18.57;100.00;101073.94;5004666;28;20302;-48
2023/06/26 03:14:29;;;;;;;7.85;7.00;;;;;;;18.55;100.00;101075.03;5008731;28;20200;-46
2023/06/26 03:16:57;;;;;;;7.30;6.70;;;;;;;18.56;100.00;101071.34;5002797;28;20201;-47
2023/06/26 03:19:24;;;;;;;7.22;6.45;;;;;;;18.57;100.00;101082.09;5007844;28;20267;-50
2023/06/26 03:22:13;;;;;;;7.20;6.60;;;;;;;18.56;100.00;101083.06;5014546;28;20204;-48
2023/06/26 03:24:39;;;;;;;7.40;6.35;;;;;;;18.60;100.00;101076.44;5006057;28;20177;-49
2023/06/26 03:27:05;;;;;;;8.10;7.30;;;;;;;18.59;100.00;101079.28;5000677;28;20554;-47
2023/06/26 03:29:31;;;;;;;8.48;7.65;;;;;;;18.59;100.00;101073.84;5011164;28;20638;-49
2023/06/26 03:31:56;;;;;;;8.50;7.72;;;;;;;18.63;100.00;101075.34;5017113;28;20268;-48
2023/06/26 03:34:22;;;;;;;7.45;6.85;;;;;;;18.72;100.00;101069.31;5020470;28;20215;-48
2023/06/26 03:36:48;;;;;;;7.72;7.05;;;;;;;18.68;100.00;101067.78;5012229;28;20173;-50
2023/06/26 03:39:13;;;;;;;7.93;7.13;;;;;;;18.67;100.00;101068.75;5012111;28;20184;-49
2023/06/26 03:41:39;;;;;;;7.68;6.97;;;;;;;18.67;100.00;101057.91;4996019;28;20612;-49
2023/06/26 03:44:05;;;;;;;7.97;7.18;;;;;;;18.70;100.00;101077.56;4998512;28;20198;-49
2023/06/26 03:46:40;;;;;;;8.35;7.28;;;;;;;18.71;100.00;101065.72;5008556;28;20187;-48
2023/06/26 03:49:05;;;;;;;7.50;6.55;;;;;;;18.74;100.00;101062.81;5010865;28;20176;-47
2023/06/26 03:51:31;;;;;;;7.43;6.82;;;;;;;18.76;100.00;101053.69;5015754;28;20630;-48
2023/06/26 03:53:56;;;;;;;7.88;6.75;;;;;;;18.81;100.00;101051.56;5005837;28;20215;-49
2023/06/26 03:56:22;;;;;;;7.65;7.05;;;;;;;18.82;100.00;101056.00;5018612;28;20184;-47
2023/06/26 03:58:48;;;;;;;7.82;7.20;;;;;;;18.91;100.00;101055.38;5007490;28;20197;-48
2023/06/26 04:01:13;;;;;;;7.70;6.90;;;;;;;18.91;100.00;101048.09;5008568;28;20177;-48
2023/06/26 04:03:39;;;;;;;7.97;7.28;;;;;;;18.91;100.00;101047.22;5011289;28;20207;-50
2023/06/26 04:06:05;;;;;;;7.88;7.22;;;;;;;18.95;100.00;101040.59;5013179;28;20638;-48
2023/06/26 04:08:30;;;;;;;7.63;7.03;;;;;;;19.01;100.00;101037.47;5016114;28;20196;-49
2023/06/26 04:10:57;;;;;;;8.43;6.63;;;;;;;19.04;100.00;101030.94;5011286;28;20512;-49
2023/06/26 04:13:23;;;;;;;7.80;7.00;;;;;;;19.13;100.00;101027.56;5004810;28;20510;-48
2023/06/26 04:15:48;;;;;;;9.40;7.43;;;;;;;19.18;100.00;101027.25;5012964;28;20559;-49
2023/06/26 04:18:14;;;;;;;7.53;6.82;;;;;;;19.24;100.00;101029.50;5013210;28;20188;-48
2023/06/26 04:20:41;;;;;;;7.13;6.53;;;;;;;19.37;100.00;101021.34;5012385;28;20279;-47
2023/06/26 04:23:07;;;;;;;8.90;7.20;;;;;;;19.44;100.00;101019.94;5012655;28;20573;-48
2023/06/26 04:25:32;;;;;;;8.07;7.38;;;;;;;19.47;99.83;101022.44;4993026;28;20165;-47
2023/06/26 04:27:58;;;;;;;11.98;6.82;;;;;;;19.50;99.73;101024.91;5006221;28;20179;-49
2023/06/26 04:30:23;;;;;;;8.90;6.80;;;;;;;19.48;99.34;101022.34;5003206;28;20174;-47
2023/06/26 04:32:49;;;;;;;7.90;7.20;;;;;;;19.54;99.02;101001.97;5011078;28;20193;-48
2023/06/26 04:35:14;;;;;;;7.68;6.97;;;;;;;19.65;98.75;101003.91;5012245;28;20216;-49
2023/06/26 04:37:40;;;;;;;7.82;6.60;;;;;;;19.66;98.54;100995.66;5019939;28;20194;-49
2023/06/26 04:40:07;;;;;;;7.45;6.75;;;;;;;19.74;98.39;101005.97;5004931;28;20177;-50
2023/06/26 04:42:32;;;;;;;7.50;6.80;;;;;;;19.75;98.06;100996.84;5002882;28;20295;-50
2023/06/26 04:44:58;;;;;;;7.97;6.40;;;;;;;19.87;97.85;100993.19;4992846;28;20161;-50
2023/06/26 04:47:23;;;;;;;7.63;7.00;;;;;;;19.94;96.96;100993.63;5008749;28;20203;-49
2023/06/26 04:49:49;;;;;;;7.55;6.78;;;;;;;20.03;96.20;100984.78;5000575;28;20192;-48
2023/06/26 04:52:14;;;;;;;7.82;7.00;;;;;;;20.10;95.80;100979.75;5001072;28;20212;-47
2023/06/26 04:54:40;;;;;;;8.77;7.18;;;;;;;20.22;95.47;100980.66;5012181;28;20244;-48
2023/06/26 04:57:05;;;;;;;7.57;6.90;;;;;;;20.30;94.46;100978.22;5003966;28;20187;-50
2023/06/26 04:59:31;;;;;;;8.13;6.95;;;;;;;20.42;93.85;100968.22;5012338;28;20204;-48
2023/06/26 05:01:57;;;;;;;6.88;6.18;;;;;;;20.47;92.77;100963.31;5013115;28;20570;-47
2023/06/26 05:04:22;;;;;;;6.97;6.35;;;;;;;20.59;91.72;100965.09;5017165;28;20486;-49
2023/06/26 05:06:48;;;;;;;7.25;6.55;;;;;;;20.69;91.28;100960.66;5012412;28;20190;-49
2023/06/26 05:09:14;;;;;;;8.38;7.03;;;;;;;20.78;90.92;100957.22;5004472;28;20184;-47
2023/06/26 05:11:39;;;;;;;6.80;6.00;;;;;;;20.89;90.23;100958.22;5012106;28;20172;-48
2023/06/26 05:14:07;;;;;;;7.25;6.55;;;;;;;20.98;89.48;100952.91;5018727;28;20218;-49
2023/06/26 05:16:34;;;;;;;6.97;6.35;;;;;;;21.10;88.06;100947.44;5023313;28;20172;-51
2023/06/26 05:19:00;;;;;;;8.38;6.32;;;;;;;21.16;87.59;100947.81;5010388;28;20181;-49
2023/06/26 05:21:25;;;;;;;7.13;6.43;;;;;;;21.19;86.96;100936.69;5010327;28;20184;-50
2023/06/26 05:23:55;;;;;;;6.35;5.85;;;;;;;21.22;86.52;100941.00;5015323;28;20569;-49
2023/06/26 05:26:21;;;;;;;7.85;6.30;;;;;;;21.27;86.03;100935.19;5012043;28;20181;-47
2023/06/26 05:28:48;;;;;;;6.93;6.32;;;;;;;21.35;86.20;100935.44;5011358;28;20242;-49
2023/06/26 05:31:15;;;;;;;6.45;5.95;;;;;;;21.45;85.50;100936.44;5000387;28;20267;-48
2023/06/26 05:33:44;;;;;;;7.85;6.50;;;;;;;21.54;84.85;100929.38;4997923;28;20216;-48
2023/06/26 05:36:12;;;;;;;6.45;5.85;;;;;;;21.66;84.43;100925.59;5008196;28;20690;-48
2023/06/26 05:38:38;;;;;;;6.75;5.72;;;;;;;21.77;83.77;100919.25;5011473;28;20256;-47
2023/06/26 05:41:04;;;;;;;7.03;5.88;;;;;;;21.81;83.14;100920.72;5011216;28;20191;-47
2023/06/26 05:43:29;;;;;;;6.78;6.10;;;;;;;21.87;82.74;100919.38;5011279;28;20192;-47
2023/06/26 05:45:57;;;;;;;6.50;5.90;;;;;;;21.94;82.11;100907.78;5011093;28;20179;-47
2023/06/26 05:48:23;;;;;;;6.75;6.15;;;;;;;22.05;81.75;100909.59;5009330;28;20551;-49
2023/06/26 05:50:49;;;;;;;6.68;6.07;;;;;;;22.08;81.38;100901.13;5005044;28;20648;-50
2023/06/26 05:53:14;;;;;;;6.88;6.18;;;;;;;22.20;81.07;100900.09;5009488;28;20619;-47
2023/06/26 05:55:42;;;;;;;6.57;5.97;;;;;;;22.27;80.64;100900.47;5011121;28;20188;-47
2023/06/26 05:58:10;;;;;;;6.70;6.10;;;;;;;22.40;79.72;100898.41;5010993;28;20176;-48
2023/06/26 06:00:36;;;;;;;7.43;6.35;;;;;;;22.46;79.39;100894.28;5007422;28;20184;-47
2023/06/26 06:03:01;;;;;;;6.72;6.00;;;;;;;22.60;78.99;100882.13;5006333;28;20216;-47
2023/06/26 06:05:27;;;;;;;6.50;5.50;;;;;;;22.68;79.16;100878.75;5010565;28;20482;-47
2023/06/26 06:07:52;;;;;;;7.13;6.05;;;;;;;22.82;78.59;100875.63;5005309;28;20169;-47
2023/06/26 06:10:17;;;;;;;7.00;6.30;;;;;;;22.91;77.76;100868.47;5000296;28;20176;-48
2023/06/26 06:12:43;;;;;;;6.57;5.97;;;;;;;22.91;76.68;100879.41;5010686;28;20294;-47
2023/06/26 06:15:09;;;;;;;5.95;5.45;;;;;;;23.07;75.93;100873.44;5010789;28;20207;-47
2023/06/26 06:17:34;;;;;;;6.38;5.63;;;;;;;23.28;75.79;100873.38;5010504;28;20259;-50
2023/06/26 06:20:00;;;;;;;6.47;5.88;;;;;;;23.41;75.30;100872.09;5010626;28;20177;-48
2023/06/26 06:22:25;;;;;;;6.20;5.40;;;;;;;23.68;74.44;100869.69;5010623;28;20239;-48
2023/06/26 06:24:51;;;;;;;7.60;5.93;;;;;;;23.79;73.51;100866.84;5010662;28;20212;-47
2023/06/26 06:27:17;;;;;;;6.30;5.70;;;;;;;23.99;72.77;100862.25;5009431;28;20208;-48
2023/06/26 06:29:42;;;;;;;6.13;5.63;;;;;;;24.23;72.21;100845.38;5010993;28;20663;-48
2023/06/26 06:32:08;;;;;;;7.68;5.93;;;;;;;24.24;71.76;100847.94;5009096;28;20208;-49
2023/06/26 06:34:34;;;;;;;6.93;6.00;;;;;;;24.45;70.94;100844.16;5005701;28;20197;-47
2023/06/26 06:36:59;;;;;;;6.63;6.03;;;;;;;24.56;70.58;100832.22;5005456;28;20191;-45
2023/06/26 06:39:25;;;;;;;8.40;5.82;;;;;;;24.65;69.49;100823.94;5010471;28;20265;-48
2023/06/26 06:41:51;;;;;;;6.38;5.65;;;;;;;24.84;69.44;100824.88;5010582;28;20259;-48
2023/06/26 06:44:16;;;;;;;6.20;5.70;;;;;;;25.00;68.47;100819.59;5010795;28;20177;-47
2023/06/26 06:46:41;;;;;;;10.43;5.45;;;;;;;25.09;67.88;100809.59;5010691;28;20602;-47
2023/06/26 06:49:08;;;;;;;6.32;5.72;;;;;;;25.18;66.88;100802.31;5010776;28;20184;-47
2023/06/26 06:51:34;;;;;;;5.68;5.18;;;;;;;25.24;66.55;100791.63;5010539;28;20247;-45
2023/06/26 06:53:59;;;;;;;7.03;5.78;;;;;;;25.73;65.84;100796.72;5010348;28;20215;-47
2023/06/26 06:56:25;;;;;;;6.78;5.07;;;;;;;25.69;64.49;100787.94;5005967;28;20194;-45
2023/06/26 06:58:50;;;;;;;7.50;6.00;;;;;;;25.78;64.79;100788.00;4995986;28;20200;-47
2023/06/26 07:01:16;;;;;;;9.80;5.60;;;;;;;26.29;64.40;100787.22;5001838;28;20180;-47
2023/06/26 07:03:41;;;;;;;7.50;5.63;;;;;;;26.25;62.74;100779.47;4991075;28;20192;-48
2023/06/26 07:06:07;;;;;;;6.15;5.53;;;;;;;26.05;63.79;100781.56;5001179;28;20263;-46
2023/06/26 07:08:32;;;;;;;7.57;5.63;;;;;;;26.25;62.80;100763.84;4998871;28;20674;-46
2023/06/26 07:10:58;;;;;;;8.23;6.35;;;;;;;26.16;62.88;100761.22;5014147;28;20180;-48
2023/06/26 07:13:23;;;;;;;5.68;5.28;;;;;;;26.66;62.35;100758.59;5013933;28;20203;-46
2023/06/26 07:15:49;;;;;;;5.47;4.85;;;;;;;27.04;60.97;100738.94;5013979;28;20172;-47
2023/06/26 07:18:15;;;;;;;8.10;5.60;;;;;;;27.01;60.83;100742.91;5005811;28;20646;-47
2023/06/26 07:20:41;;;;;;;6.43;5.82;;;;;;;26.77;60.18;100737.34;5013673;28;20445;-48
2023/06/26 07:23:07;;;;;;;5.78;5.28;;;;;;;26.77;60.43;100740.09;5013854;28;20346;-48
2023/06/26 07:25:32;;;;;;;5.65;5.13;;;;;;;27.26;59.73;100731.97;5014123;28;20172;-47
2023/06/26 07:27:58;;;;;;;5.63;5.22;;;;;;;27.50;58.84;100725.63;5014056;28;20176;-48
2023/06/26 07:30:24;;;;;;;5.45;5.03;;;;;;;27.46;58.80;100724.25;5013723;28;20182;-46
2023/06/26 07:32:49;;;;;;;9.35;5.15;;;;;;;27.35;58.46;100716.34;5014165;28;20216;-46
2023/06/26 07:35:15;;;;;;;7.95;5.03;;;;;;;27.77;59.11;100718.94;5013761;28;20682;-45
2023/06/26 07:37:41;;;;;;;6.15;5.47;;;;;;;28.10;57.95;100705.13;5013806;28;20232;-47
2023/06/26 07:40:07;;;;;;;6.00;5.30;;;;;;;28.04;56.92;100697.56;5012494;28;20198;-47
2023/06/26 07:42:32;;;;;;;5.80;5.30;;;;;;;27.96;57.25;100705.84;5013185;28;20228;-48
2023/06/26 07:44:58;;;;;;;5.60;5.10;;;;;;;27.99;56.36;100698.09;5013371;28;20610;-46
2023/06/26 07:47:23;;;;;;;7.30;4.97;;;;;;;27.92;56.74;100695.19;5013098;28;20609;-48
2023/06/26 07:49:49;;;;;;;6.28;5.68;;;;;;;27.99;55.97;100678.81;5000087;28;20191;-48
2023/06/26 07:52:15;;;;;;;6.47;5.75;;;;;;;28.22;55.03;100665.13;5009988;28;20243;-50
2023/06/26 07:54:40;;;;;;;5.90;5.40;;;;;;;28.40;54.34;100658.50;5013490;28;20289;-49
2023/06/26 07:57:11;;;;;;;6.07;5.57;;;;;;;28.24;54.13;100648.44;5012543;28;20180;-49
2023/06/26 07:59:36;;;;;;;5.65;5.15;;;;;;;28.48;53.51;100650.25;5000664;28;20200;-51
2023/06/26 08:02:02;;;;;;;5.90;5.32;;;;;;;28.42;53.48;100640.75;5010165;28;20189;-49
2023/06/26 08:04:31;;;;;;;7.20;5.55;;;;;;;28.51;52.79;100623.19;5011186;28;20180;-49
2023/06/26 08:06:59;;;;;;;5.20;4.70;;;;;;;28.52;52.71;100619.38;5010169;28;20185;-49
2023/06/26 08:09:27;;;;;;;5.75;5.20;;;;;;;28.47;52.70;100615.41;5005518;28;20183;-51
2023/06/26 08:11:52;;;;;;;6.93;4.90;;;;;;;28.87;53.05;100625.34;5009622;28;20543;-49
2023/06/26 08:14:18;;;;;;;8.23;5.25;;;;;;;29.35;51.60;100608.63;5014282;28;20294;-50
2023/06/26 08:16:44;;;;;;;6.40;4.82;;;;;;;29.34;51.21;100609.66;5015065;28;20266;-49
2023/06/26 08:19:11;;;;;;;9.18;5.30;;;;;;;29.41;50.51;100604.22;5012735;28;20234;-51
2023/06/26 08:21:36;;;;;;;6.10;5.18;;;;;;;28.99;51.25;100606.47;5006287;28;20734;-50
2023/06/26 08:24:02;;;;;;;6.05;5.55;;;;;;;29.44;51.12;100606.63;5016911;28;20286;-50
2023/06/26 08:26:28;;;;;;;7.53;5.57;;;;;;;29.20;50.63;100594.78;5008774;28;20267;-50
2023/06/26 08:28:53;;;;;;;5.80;5.10;;;;;;;29.31;50.72;100590.72;5009481;28;20250;-51
2023/06/26 08:31:19;;;;;;;5.93;5.30;;;;;;;29.11;50.13;100574.69;5013384;28;20646;-51
2023/06/26 08:33:45;;;;;;;5.43;4.93;;;;;;;29.57;50.35;100584.75;5019837;28;20297;-49
2023/06/26 08:36:10;;;;;;;6.00;5.07;;;;;;;30.04;49.55;100571.63;5006011;28;20181;-49
2023/06/26 08:38:36;;;;;;;6.25;5.10;;;;;;;29.90;49.58;100556.78;5001177;28;20179;-48
2023/06/26 08:41:01;;;;;;;6.05;5.40;;;;;;;30.30;49.87;100560.09;5003354;28;20634;-49
2023/06/26 08:43:28;;;;;;;7.45;4.88;;;;;;;30.33;49.77;100557.81;5016502;28;20726;-53
2023/06/26 08:45:53;;;;;;;6.63;5.95;;;;;;;29.90;49.45;100532.78;5016483;28;20693;-50
2023/06/26 08:48:21;;;;;;;5.40;4.90;;;;;;;30.04;49.56;100530.19;5003746;28;20195;-50
2023/06/26 08:50:49;;;;;;;6.53;5.47;;;;;;;30.55;49.33;100531.03;5006238;28;20184;-51
2023/06/26 08:53:29;;;;;;;8.07;5.22;;;;;;;30.49;47.35;100517.13;5015296;28;20305;-49
2023/06/26 08:55:57;;;;;;;7.40;4.95;;;;;;;29.91;48.34;100503.25;5002007;28;20501;-49
2023/06/26 08:58:22;;;;;;;7.03;5.18;;;;;;;29.62;47.91;100506.88;5004857;28;20194;-50
2023/06/26 09:00:49;;;;;;;12.93;5.53;;;;;;;29.46;48.42;100510.69;5017145;28;20172;-48
2023/06/26 09:03:15;;;;;;;6.10;5.05;;;;;;;29.25;48.70;100519.72;5007279;28;20774;-49
2023/06/26 09:05:41;;;;;;;8.13;5.40;;;;;;;29.35;48.75;100523.91;5004521;28;20618;-50
2023/06/26 09:08:07;;;;;;;6.95;5.25;;;;;;;30.04;48.53;100533.81;5005876;28;20189;-50
2023/06/26 09:10:33;;;;;;;7.90;5.38;;;;;;;30.05;48.38;100521.72;5013011;28;20176;-45
2023/06/26 09:13:00;;;;;;;7.55;5.32;;;;;;;29.74;48.78;100530.25;5010020;28;20207;-46
2023/06/26 09:15:28;;;;;;;5.38;4.88;;;;;;;29.14;49.96;100549.47;5001885;28;20629;-47
2023/06/26 09:17:57;;;;;;;5.78;5.10;;;;;;;28.52;51.27;100555.97;5012492;28;20237;-48
2023/06/26 09:20:22;;;;;;;8.38;5.45;;;;;;;28.06;51.77;100558.63;5008080;28;20263;-49
2023/06/26 09:22:48;;;;;;;9.75;6.32;;;;;;;27.30;58.50;100664.59;5009674;28;20279;-48
2023/06/26 09:25:14;;;;;;;13.07;7.13;;;;;;;25.74;67.31;100721.59;5004580;28;20297;-46
2023/06/26 09:27:42;;;;;;;9.40;7.20;;;;;;;24.87;72.63;100745.09;5012158;28;20547;-49
2023/06/26 09:30:08;;;;;;;9.82;7.75;;;;;;;24.01;75.68;100754.34;5014310;28;20253;-53
2023/06/26 09:32:37;;;;;;;10.68;8.57;;;;;;;24.09;77.53;100744.53;5002752;28;20288;-48
2023/06/26 09:35:03;;;;;;;10.10;9.15;;;;;;;24.19;80.85;100745.38;5002664;28;20305;-49
2023/06/26 09:37:29;;;;;;;9.20;8.27;;;;;;;24.28;83.61;100749.94;5016692;28;20291;-51
2023/06/26 09:39:55;;;;;;;10.30;9.02;;;;;;;24.75;81.88;100755.41;5013606;28;20176;-49
2023/06/26 09:42:20;;;;;;;10.68;9.68;;;;;;;25.45;81.59;100774.88;5008272;28;20195;-50
2023/06/26 09:44:48;;;;;;;13.85;12.45;;;;;;;25.43;78.10;100782.41;5000805;28;20181;-50
2023/06/26 09:47:18;;;;;;;14.45;12.77;;;;;;;25.00;76.72;100769.38;5018320;28;20209;-52
2023/06/26 09:49:44;;;;;;;13.18;11.88;;;;;;;24.68;77.12;100787.16;5007775;28;20188;-49
2023/06/26 09:52:15;;;;;;;12.35;10.80;;;;;;;24.51;77.07;100804.38;5009552;28;20200;-49
2023/06/26 09:54:41;;;;;;;10.13;7.53;;;;;;;25.08;74.40;100788.69;5004510;28;20216;-52
2023/06/26 09:57:11;;;;;;;7.35;6.63;;;;;;;24.52;72.99;100779.59;5011657;28;20172;-50
2023/06/26 09:59:37;;;;;;;7.28;6.20;;;;;;;24.36;73.08;100785.69;5015347;28;20181;-50
2023/06/26 10:02:03;;;;;;;13.65;7.72;;;;;;;24.10;73.13;100785.47;4998325;28;20597;-50
2023/06/26 10:04:28;;;;;;;7.85;6.95;;;;;;;24.18;72.58;100806.59;5001203;28;20159;-50
2023/06/26 10:07:00;;;;;;;8.65;5.78;;;;;;;23.55;73.05;100816.16;5011263;28;20179;-49
2023/06/26 10:09:27;;;;;;;8.50;5.60;;;;;;;23.03;74.31;100832.75;5012039;28;20202;-50
2023/06/26 10:12:04;;;;;;;8.40;5.15;;;;;;;22.73;74.55;100850.00;5000672;28;20654;-49
2023/06/26 10:14:39;;;;;;;8.65;5.25;;;;;;;22.67;74.52;100864.19;5008041;28;20204;-50
2023/06/26 10:17:09;;;;;;;6.75;5.20;;;;;;;22.16;74.45;100856.84;5014106;28;20647;-48
2023/06/26 10:19:37;;;;;;;8.23;5.43;;;;;;;22.14;74.98;100873.31;5004541;28;20195;-48
2023/06/26 10:22:03;;;;;;;9.52;5.53;;;;;;;22.02;75.14;100869.81;5004365;28;20169;-51
2023/06/26 10:24:33;;;;;;;7.20;5.93;;;;;;;21.86;74.55;100879.41;5008938;28;20315;-51
2023/06/26 10:27:27;;;;;;;6.78;5.47;;;;;;;22.10;74.63;100871.00;5013851;28;20227;-50
2023/06/26 10:29:55;;;;;;;7.57;5.93;;;;;;;21.73;75.71;100853.19;4998717;28;20176;-51
2023/06/26 10:32:24;;;;;;;8.32;6.15;;;;;;;21.96;77.05;100853.09;5005610;28;20203;-52
2023/06/26 10:34:54;;;;;;;10.45;6.30;;;;;;;21.47;78.84;100862.69;5016196;28;20259;-48
2023/06/26 10:37:20;;;;;;;8.00;6.03;;;;;;;21.49;82.64;100868.88;5010140;28;20187;-50
2023/06/26 10:39:54;;;;;;;10.00;7.30;;;;;;;21.11;86.36;100894.72;5002661;28;20176;-49
2023/06/26 10:42:34;;;;;;;11.40;6.95;;;;;;;20.61;91.20;100914.13;5006824;28;20295;-50
2023/06/26 10:45:20;;;;;;;7.40;6.20;;;;;;;20.72;94.51;100927.75;5015424;28;20676;-51
2023/06/26 10:47:47;;;;;;;11.82;7.03;;;;;;;20.94;97.53;100931.47;5004901;28;20230;-51
2023/06/26 10:50:35;;;;;;;11.57;6.85;;;;;;;20.85;99.47;100924.91;5007510;28;20185;-52
2023/06/26 10:53:24;;;;;;;7.95;6.03;;;;;;;20.57;100.00;100926.22;5014081;28;20274;-51
2023/06/26 10:55:56;;;;;;;11.35;6.95;;;;;;;20.69;100.00;100940.75;5016112;28;20180;-51
2023/06/26 10:58:39;;;;;;;14.35;6.90;;;;;;;20.61;100.00;100965.84;5002264;28;20168;-50
2023/06/26 11:01:23;;;;;;;10.23;6.50;;;;;;;20.44;100.00;100967.13;5008096;28;20186;-50
2023/06/26 11:04:05;;;;;;;7.05;6.32;;;;;;;20.23;100.00;100977.81;5010678;28;20706;-53
2023/06/26 11:06:31;;;;;;;8.50;6.55;;;;;;;20.24;100.00;100976.81;5014249;28;20758;-51
2023/06/26 11:09:11;;;;;;;9.70;6.53;;;;;;;20.53;100.00;100987.31;5001906;28;20655;-53
2023/06/26 11:11:52;;;;;;;7.43;6.63;;;;;;;20.61;100.00;100979.44;5005076;28;20237;-51
2023/06/26 11:14:19;;;;;;;10.07;6.80;;;;;;;20.86;100.00;100970.25;5035768;28;20690;-53
2023/06/26 11:16:45;;;;;;;8.18;6.60;;;;;;;21.04;100.00;100965.16;5008945;28;20259;-51
2023/06/26 11:19:11;;;;;;;11.55;7.40;;;;;;;21.19;100.00;100969.38;5007544;28;20662;-51
2023/06/26 11:21:38;;;;;;;9.93;7.15;;;;;;;20.93;100.00;100987.81;5012711;28;20275;-50
2023/06/26 11:24:05;;;;;;;8.77;6.70;;;;;;;20.96;100.00;100981.25;5009491;28;20204;-51